sensor_id;sensor_type;location;lat;lon;timestamp;pressure;altitude;pressure_sealevel;temperature;humidity
11395;BME280;5753;54.402;10.220;2023-02-19T00:01:44;101478.59;;;11.74;65.99
11395;BME280;5753;54.402;10.220;2023-02-19T00:04:16;101480.91;;;12.91;61.64
11395;BME280;5753;54.402;10.220;2023-02-19T00:06:43;101486.94;;;12.90;61.16
11395;BME280;5753;54.402;10.220;2023-02-19T00:09:11;101485.41;;;12.53;61.03
11395;BME280;5753;54.402;10.220;2023-02-19T00:11:38;101490.63;;;12.56;62.44
11395;BME280;5753;54.402;10.220;2023-02-19T00:14:05;101490.91;;;12.73;61.51
11395;BME280;5753;54.402;10.220;2023-02-19T00:16:36;101506.38;;;11.09;67.87
11395;BME280;5753;54.402;10.220;2023-02-19T00:19:09;101497.28;;;11.61;68.27
11395;BME280;5753;54.402;10.220;2023-02-19T00:21:36;101500.03;;;12.08;67.54
11395;BME280;5753;54.402;10.220;2023-02-19T00:24:04;101500.56;;;10.83;72.48
11395;BME280;5753;54.402;10.220;2023-02-19T00:26:32;101502.72;;;10.05;76.13
11395;BME280;5753;54.402;10.220;2023-02-19T00:29:00;101496.69;;;10.04;77.32
11395;BME280;5753;54.402;10.220;2023-02-19T00:31:31;101508.09;;;9.84;78.66
11395;BME280;5753;54.402;10.220;2023-02-19T00:34:00;101500.00;;;11.31;72.13
11395;BME280;5753;54.402;10.220;2023-02-19T00:36:27;101502.56;;;11.67;70.35
11395;BME280;5753;54.402;10.220;2023-02-19T00:38:54;101505.34;;;11.76;69.07
11395;BME280;5753;54.402;10.220;2023-02-19T00:41:22;101507.47;;;11.55;68.07
11395;BME280;5753;54.402;10.220;2023-02-19T00:44:00;101507.22;;;11.08;74.04
11395;BME280;5753;54.402;10.220;2023-02-19T00:48:55;101514.06;;;10.12;76.11
11395;BME280;5753;54.402;10.220;2023-02-19T00:51:28;101513.53;;;10.53;77.88
11395;BME280;5753;54.402;10.220;2023-02-19T00:53:54;101515.78;;;10.74;74.34
11395;BME280;5753;54.402;10.220;2023-02-19T00:56:20;101516.13;;;10.53;77.07
11395;BME280;5753;54.402;10.220;2023-02-19T00:58:47;101517.53;;;9.28;83.44
11395;BME280;5753;54.402;10.220;2023-02-19T01:01:13;101529.38;;;9.78;83.75
11395;BME280;5753;54.402;10.220;2023-02-19T01:03:40;101528.94;;;9.36;85.45
11395;BME280;5753;54.402;10.220;2023-02-19T01:06:08;101522.28;;;9.98;83.60
11395;BME280;5753;54.402;10.220;2023-02-19T01:08:35;101523.41;;;9.51;84.31
11395;BME280;5753;54.402;10.220;2023-02-19T01:11:03;101520.59;;;10.60;81.02
11395;BME280;5753;54.402;10.220;2023-02-19T01:13:29;101518.38;;;11.07;77.89
11395;BME280;5753;54.402;10.220;2023-02-19T01:18:36;101523.53;;;9.84;85.09
11395;BME280;5753;54.402;10.220;2023-02-19T01:21:13;101519.16;;;10.71;81.13
11395;BME280;5753;54.402;10.220;2023-02-19T01:23:39;101517.19;;;10.61;79.53
11395;BME280;5753;54.402;10.220;2023-02-19T01:26:07;101523.50;;;10.72;79.46
11395;BME280;5753;54.402;10.220;2023-02-19T01:28:34;101526.13;;;9.84;83.97
11395;BME280;5753;54.402;10.220;2023-02-19T01:31:05;101527.09;;;10.46;80.63
11395;BME280;5753;54.402;10.220;2023-02-19T01:33:32;101524.59;;;9.91;82.13
11395;BME280;5753;54.402;10.220;2023-02-19T01:36:01;101527.81;;;9.84;83.60
11395;BME280;5753;54.402;10.220;2023-02-19T01:38:27;101520.06;;;10.40;79.95
11395;BME280;5753;54.402;10.220;2023-02-19T01:40:56;101514.25;;;9.89;81.44
11395;BME280;5753;54.402;10.220;2023-02-19T01:43:22;101527.78;;;10.10;80.42
11395;BME280;5753;54.402;10.220;2023-02-19T01:45:49;101520.59;;;10.60;78.69
11395;BME280;5753;54.402;10.220;2023-02-19T01:48:20;101521.13;;;10.19;80.89
11395;BME280;5753;54.402;10.220;2023-02-19T01:53:28;101520.72;;;10.98;76.93
11395;BME280;5753;54.402;10.220;2023-02-19T01:55:58;101525.63;;;11.23;74.76
11395;BME280;5753;54.402;10.220;2023-02-19T01:58:28;101515.91;;;9.87;79.01
11395;BME280;5753;54.402;10.220;2023-02-19T02:00:56;101513.63;;;10.56;75.41
11395;BME280;5753;54.402;10.220;2023-02-19T02:03:23;101520.63;;;9.72;80.74
11395;BME280;5753;54.402;10.220;2023-02-19T02:06:04;101526.63;;;9.72;82.49
11395;BME280;5753;54.402;10.220;2023-02-19T02:08:32;101519.66;;;10.27;75.03
11395;BME280;5753;54.402;10.220;2023-02-19T02:11:18;101524.38;;;9.83;77.66
11395;BME280;5753;54.402;10.220;2023-02-19T02:13:45;101522.44;;;10.34;75.71
11395;BME280;5753;54.402;10.220;2023-02-19T02:19:43;101509.13;;;10.19;78.82
11395;BME280;5753;54.402;10.220;2023-02-19T02:24:59;101507.81;;;10.03;76.65
11395;BME280;5753;54.402;10.220;2023-02-19T02:27:42;101505.31;;;11.75;68.60
11395;BME280;5753;54.402;10.220;2023-02-19T02:30:20;101499.75;;;11.56;67.47
11395;BME280;5753;54.402;10.220;2023-02-19T02:35:34;101494.78;;;10.27;71.18
11395;BME280;5753;54.402;10.220;2023-02-19T02:38:05;101491.66;;;10.39;71.37
11395;BME280;5753;54.402;10.220;2023-02-19T02:40:33;101494.81;;;11.29;65.58
11395;BME280;5753;54.402;10.220;2023-02-19T02:43:00;101490.03;;;12.26;62.82
11395;BME280;5753;54.402;10.220;2023-02-19T02:45:31;101489.84;;;11.76;64.24
11395;BME280;5753;54.402;10.220;2023-02-19T02:53:56;101499.34;;;11.38;65.17
11395;BME280;5753;54.402;10.220;2023-02-19T02:56:43;101500.19;;;10.06;69.52
11395;BME280;5753;54.402;10.220;2023-02-19T02:59:12;101498.53;;;9.80;71.61
11395;BME280;5753;54.402;10.220;2023-02-19T03:05:03;101497.53;;;11.73;63.83
11395;BME280;5753;54.402;10.220;2023-02-19T03:08:32;101490.78;;;11.78;63.01
11395;BME280;5753;54.402;10.220;2023-02-19T03:11:09;101496.78;;;11.03;64.98
11395;BME280;5753;54.402;10.220;2023-02-19T03:16:50;101504.69;;;10.77;64.96
11395;BME280;5753;54.402;10.220;2023-02-19T03:19:43;101516.47;;;11.00;65.09
11395;BME280;5753;54.402;10.220;2023-02-19T03:22:24;101519.47;;;11.53;62.92
11395;BME280;5753;54.402;10.220;2023-02-19T03:25:01;101511.75;;;12.34;59.90
11395;BME280;5753;54.402;10.220;2023-02-19T03:27:49;101527.88;;;11.82;59.93
11395;BME280;5753;54.402;10.220;2023-02-19T03:30:20;101529.28;;;12.07;59.26
11395;BME280;5753;54.402;10.220;2023-02-19T03:33:08;101522.53;;;12.57;58.38
11395;BME280;5753;54.402;10.220;2023-02-19T03:35:39;101527.84;;;11.43;60.22
11395;BME280;5753;54.402;10.220;2023-02-19T03:38:18;101530.03;;;12.43;58.47
11395;BME280;5753;54.402;10.220;2023-02-19T03:49:25;101529.84;;;11.56;60.42
11395;BME280;5753;54.402;10.220;2023-02-19T03:52:09;101529.06;;;11.22;62.08
11395;BME280;5753;54.402;10.220;2023-02-19T03:54:56;101537.25;;;10.12;64.30
11395;BME280;5753;54.402;10.220;2023-02-19T04:00:29;101549.19;;;11.35;60.72
11395;BME280;5753;54.402;10.220;2023-02-19T04:03:01;101547.25;;;11.28;60.77
11395;BME280;5753;54.402;10.220;2023-02-19T04:05:34;101550.31;;;11.47;60.50
11395;BME280;5753;54.402;10.220;2023-02-19T04:08:13;101562.31;;;11.45;60.48
11395;BME280;5753;54.402;10.220;2023-02-19T04:10:41;101564.16;;;11.50;60.57
11395;BME280;5753;54.402;10.220;2023-02-19T04:13:19;101569.47;;;10.56;62.97
11395;BME280;5753;54.402;10.220;2023-02-19T04:15:50;101573.53;;;11.47;60.59
11395;BME280;5753;54.402;10.220;2023-02-19T04:18:22;101577.84;;;10.80;62.59
11395;BME280;5753;54.402;10.220;2023-02-19T04:20:50;101589.25;;;10.57;63.76
11395;BME280;5753;54.402;10.220;2023-02-19T04:23:21;101590.50;;;10.71;63.77
11395;BME280;5753;54.402;10.220;2023-02-19T04:25:52;101595.19;;;10.86;64.17
11395;BME280;5753;54.402;10.220;2023-02-19T04:28:21;101590.00;;;11.52;61.47
11395;BME280;5753;54.402;10.220;2023-02-19T04:30:47;101598.13;;;11.68;60.81
11395;BME280;5753;54.402;10.220;2023-02-19T04:33:13;101606.78;;;10.12;66.45
11395;BME280;5753;54.402;10.220;2023-02-19T04:35:39;101613.34;;;10.29;65.60
11395;BME280;5753;54.402;10.220;2023-02-19T04:38:05;101609.41;;;11.36;62.46
11395;BME280;5753;54.402;10.220;2023-02-19T04:40:32;101607.38;;;11.59;61.31
11395;BME280;5753;54.402;10.220;2023-02-19T04:42:58;101612.75;;;11.68;60.32
11395;BME280;5753;54.402;10.220;2023-02-19T04:45:24;101617.88;;;11.32;62.00
11395;BME280;5753;54.402;10.220;2023-02-19T04:47:50;101611.19;;;11.39;61.03
11395;BME280;5753;54.402;10.220;2023-02-19T04:50:16;101615.78;;;12.24;58.25
11395;BME280;5753;54.402;10.220;2023-02-19T04:52:43;101605.47;;;11.85;58.83
11395;BME280;5753;54.402;10.220;2023-02-19T04:55:09;101611.06;;;11.34;60.18
11395;BME280;5753;54.402;10.220;2023-02-19T04:57:35;101614.13;;;11.87;59.49
11395;BME280;5753;54.402;10.220;2023-02-19T05:00:02;101618.44;;;10.87;63.08
11395;BME280;5753;54.402;10.220;2023-02-19T05:02:29;101614.06;;;11.84;59.26
11395;BME280;5753;54.402;10.220;2023-02-19T05:04:55;101620.84;;;11.46;60.13
11395;BME280;5753;54.402;10.220;2023-02-19T05:07:21;101613.13;;;11.14;61.54
11395;BME280;5753;54.402;10.220;2023-02-19T05:09:47;101613.88;;;11.78;58.71
11395;BME280;5753;54.402;10.220;2023-02-19T05:12:14;101619.03;;;11.78;58.73
11395;BME280;5753;54.402;10.220;2023-02-19T05:14:40;101630.69;;;10.64;62.15
11395;BME280;5753;54.402;10.220;2023-02-19T05:17:06;101622.09;;;11.28;60.38
11395;BME280;5753;54.402;10.220;2023-02-19T05:19:32;101625.63;;;11.66;58.77
11395;BME280;5753;54.402;10.220;2023-02-19T05:21:58;101629.72;;;11.91;58.08
11395;BME280;5753;54.402;10.220;2023-02-19T05:24:24;101635.00;;;10.95;60.28
11395;BME280;5753;54.402;10.220;2023-02-19T05:26:52;101648.72;;;9.28;66.01
11395;BME280;5753;54.402;10.220;2023-02-19T05:29:18;101648.91;;;10.70;63.44
11395;BME280;5753;54.402;10.220;2023-02-19T05:31:44;101653.66;;;10.27;64.87
11395;BME280;5753;54.402;10.220;2023-02-19T05:34:11;101660.78;;;10.08;66.06
11395;BME280;5753;54.402;10.220;2023-02-19T05:36:37;101665.72;;;10.01;65.20
11395;BME280;5753;54.402;10.220;2023-02-19T05:39:04;101667.78;;;10.69;63.02
11395;BME280;5753;54.402;10.220;2023-02-19T05:41:31;101665.84;;;10.05;66.64
11395;BME280;5753;54.402;10.220;2023-02-19T05:43:57;101668.31;;;10.29;66.00
11395;BME280;5753;54.402;10.220;2023-02-19T05:46:26;101665.03;;;9.29;67.40
11395;BME280;5753;54.402;10.220;2023-02-19T05:48:53;101669.13;;;10.55;64.89
11395;BME280;5753;54.402;10.220;2023-02-19T05:51:22;101677.84;;;10.32;63.69
11395;BME280;5753;54.402;10.220;2023-02-19T05:53:49;101686.41;;;10.04;66.36
11395;BME280;5753;54.402;10.220;2023-02-19T05:56:35;101695.91;;;10.60;64.07
11395;BME280;5753;54.402;10.220;2023-02-19T05:59:05;101706.19;;;10.05;66.26
11395;BME280;5753;54.402;10.220;2023-02-19T06:01:33;101706.25;;;9.81;67.84
11395;BME280;5753;54.402;10.220;2023-02-19T06:03:59;101709.78;;;9.34;67.07
11395;BME280;5753;54.402;10.220;2023-02-19T06:06:26;101713.38;;;9.63;67.11
11395;BME280;5753;54.402;10.220;2023-02-19T06:08:53;101710.50;;;9.54;66.08
11395;BME280;5753;54.402;10.220;2023-02-19T06:11:19;101717.03;;;10.79;61.99
11395;BME280;5753;54.402;10.220;2023-02-19T06:13:46;101715.31;;;10.49;63.24
11395;BME280;5753;54.402;10.220;2023-02-19T06:16:12;101709.34;;;9.45;64.61
11395;BME280;5753;54.402;10.220;2023-02-19T06:18:38;101714.56;;;9.72;65.34
11395;BME280;5753;54.402;10.220;2023-02-19T06:21:09;101728.63;;;9.33;67.05
11395;BME280;5753;54.402;10.220;2023-02-19T06:23:36;101727.97;;;9.38;66.09
11395;BME280;5753;54.402;10.220;2023-02-19T06:26:13;101733.19;;;10.18;62.85
11395;BME280;5753;54.402;10.220;2023-02-19T06:28:41;101731.28;;;9.85;64.75
11395;BME280;5753;54.402;10.220;2023-02-19T06:31:08;101727.31;;;9.69;66.13
11395;BME280;5753;54.402;10.220;2023-02-19T06:33:35;101736.88;;;10.51;62.61
11395;BME280;5753;54.402;10.220;2023-02-19T06:36:03;101742.75;;;10.47;61.21
11395;BME280;5753;54.402;10.220;2023-02-19T06:38:30;101745.84;;;10.37;62.25
11395;BME280;5753;54.402;10.220;2023-02-19T06:41:00;101744.53;;;9.96;62.13
11395;BME280;5753;54.402;10.220;2023-02-19T06:43:27;101752.84;;;11.28;59.68
11395;BME280;5753;54.402;10.220;2023-02-19T06:45:53;101764.75;;;10.37;61.48
11395;BME280;5753;54.402;10.220;2023-02-19T06:48:19;101768.41;;;9.42;65.11
11395;BME280;5753;54.402;10.220;2023-02-19T06:50:45;101769.56;;;9.51;64.47
11395;BME280;5753;54.402;10.220;2023-02-19T06:53:12;101782.03;;;9.16;66.94
11395;BME280;5753;54.402;10.220;2023-02-19T06:55:38;101780.28;;;9.63;65.89
11395;BME280;5753;54.402;10.220;2023-02-19T06:58:05;101789.56;;;9.83;63.72
11395;BME280;5753;54.402;10.220;2023-02-19T07:00:33;101787.72;;;10.04;62.57
11395;BME280;5753;54.402;10.220;2023-02-19T07:02:59;101794.03;;;9.39;64.90
11395;BME280;5753;54.402;10.220;2023-02-19T07:05:25;101798.03;;;10.04;62.29
11395;BME280;5753;54.402;10.220;2023-02-19T07:07:52;101802.56;;;9.14;66.29
11395;BME280;5753;54.402;10.220;2023-02-19T07:10:18;101816.84;;;9.78;63.89
11395;BME280;5753;54.402;10.220;2023-02-19T07:12:44;101815.03;;;9.04;68.05
11395;BME280;5753;54.402;10.220;2023-02-19T07:15:10;101814.03;;;9.46;66.05
11395;BME280;5753;54.402;10.220;2023-02-19T07:17:36;101818.72;;;9.34;65.34
11395;BME280;5753;54.402;10.220;2023-02-19T07:20:03;101828.22;;;10.08;63.48
11395;BME280;5753;54.402;10.220;2023-02-19T07:22:29;101829.16;;;9.15;64.04
11395;BME280;5753;54.402;10.220;2023-02-19T07:24:55;101842.88;;;10.62;61.22
11395;BME280;5753;54.402;10.220;2023-02-19T07:27:21;101846.25;;;10.59;60.45
11395;BME280;5753;54.402;10.220;2023-02-19T07:29:47;101848.88;;;9.86;62.81
11395;BME280;5753;54.402;10.220;2023-02-19T07:32:13;101852.78;;;9.75;62.31
11395;BME280;5753;54.402;10.220;2023-02-19T07:34:40;101860.78;;;10.06;61.74
11395;BME280;5753;54.402;10.220;2023-02-19T07:37:06;101858.00;;;10.26;60.80
11395;BME280;5753;54.402;10.220;2023-02-19T07:39:32;101869.94;;;9.28;63.76
11395;BME280;5753;54.402;10.220;2023-02-19T07:41:58;101878.38;;;9.94;63.51
11395;BME280;5753;54.402;10.220;2023-02-19T07:44:24;101876.63;;;10.19;62.14
11395;BME280;5753;54.402;10.220;2023-02-19T07:46:50;101883.13;;;10.07;62.81
11395;BME280;5753;54.402;10.220;2023-02-19T07:49:17;101881.16;;;10.24;60.58
11395;BME280;5753;54.402;10.220;2023-02-19T07:51:43;101890.25;;;10.65;59.18
11395;BME280;5753;54.402;10.220;2023-02-19T07:54:09;101888.03;;;10.76;59.81
11395;BME280;5753;54.402;10.220;2023-02-19T07:56:36;101886.66;;;10.60;59.61
11395;BME280;5753;54.402;10.220;2023-02-19T07:59:04;101898.03;;;9.68;63.02
11395;BME280;5753;54.402;10.220;2023-02-19T08:01:30;101893.38;;;11.09;59.29
11395;BME280;5753;54.402;10.220;2023-02-19T08:04:22;101897.81;;;10.10;62.36
11395;BME280;5753;54.402;10.220;2023-02-19T08:06:48;101899.81;;;10.19;62.28
11395;BME280;5753;54.402;10.220;2023-02-19T08:09:14;101887.44;;;10.58;60.48
11395;BME280;5753;54.402;10.220;2023-02-19T08:11:40;101899.56;;;10.11;61.50
11395;BME280;5753;54.402;10.220;2023-02-19T08:14:26;101903.19;;;9.68;62.74
11395;BME280;5753;54.402;10.220;2023-02-19T08:16:52;101906.03;;;10.24;62.40
11395;BME280;5753;54.402;10.220;2023-02-19T08:19:19;101896.91;;;10.33;60.93
11395;BME280;5753;54.402;10.220;2023-02-19T08:21:45;101905.84;;;10.95;59.99
11395;BME280;5753;54.402;10.220;2023-02-19T08:24:11;101903.78;;;9.85;62.11
11395;BME280;5753;54.402;10.220;2023-02-19T08:26:38;101897.66;;;10.82;59.54
11395;BME280;5753;54.402;10.220;2023-02-19T08:29:05;101900.22;;;11.09;58.71
11395;BME280;5753;54.402;10.220;2023-02-19T08:31:32;101916.59;;;11.09;58.66
11395;BME280;5753;54.402;10.220;2023-02-19T08:33:58;101928.25;;;10.71;59.94
11395;BME280;5753;54.402;10.220;2023-02-19T08:36:25;101930.88;;;9.52;61.93
11395;BME280;5753;54.402;10.220;2023-02-19T08:38:51;101930.34;;;10.56;60.09
11395;BME280;5753;54.402;10.220;2023-02-19T08:41:17;101940.69;;;11.95;56.45
11395;BME280;5753;54.402;10.220;2023-02-19T08:43:43;101946.81;;;11.40;57.47
11395;BME280;5753;54.402;10.220;2023-02-19T08:46:10;101944.34;;;11.45;58.00
11395;BME280;5753;54.402;10.220;2023-02-19T08:48:38;101946.34;;;11.26;59.48
11395;BME280;5753;54.402;10.220;2023-02-19T08:51:07;101947.81;;;10.90;59.88
11395;BME280;5753;54.402;10.220;2023-02-19T08:53:34;101960.53;;;11.12;58.79
11395;BME280;5753;54.402;10.220;2023-02-19T08:56:09;101958.38;;;10.72;58.63
11395;BME280;5753;54.402;10.220;2023-02-19T08:58:36;101964.69;;;11.07;58.82
11395;BME280;5753;54.402;10.220;2023-02-19T09:01:06;101967.31;;;12.24;56.62
11395;BME280;5753;54.402;10.220;2023-02-19T09:03:32;101974.56;;;11.47;57.77
11395;BME280;5753;54.402;10.220;2023-02-19T09:05:58;101980.38;;;11.70;55.68
11395;BME280;5753;54.402;10.220;2023-02-19T09:08:25;101984.47;;;11.35;58.23
11395;BME280;5753;54.402;10.220;2023-02-19T09:10:59;101995.78;;;11.67;57.32
11395;BME280;5753;54.402;10.220;2023-02-19T09:13:25;101997.69;;;11.44;57.64
11395;BME280;5753;54.402;10.220;2023-02-19T09:15:51;101999.53;;;11.48;57.71
11395;BME280;5753;54.402;10.220;2023-02-19T09:18:17;102002.31;;;11.54;56.77
11395;BME280;5753;54.402;10.220;2023-02-19T09:20:44;102005.81;;;11.02;58.25
11395;BME280;5753;54.402;10.220;2023-02-19T09:23:10;102009.31;;;11.85;56.62
11395;BME280;5753;54.402;10.220;2023-02-19T09:25:36;102010.50;;;11.14;57.70
11395;BME280;5753;54.402;10.220;2023-02-19T09:28:02;102013.78;;;12.52;56.37
11395;BME280;5753;54.402;10.220;2023-02-19T09:30:28;102003.47;;;11.92;56.11
11395;BME280;5753;54.402;10.220;2023-02-19T09:32:54;102015.66;;;12.91;53.36
11395;BME280;5753;54.402;10.220;2023-02-19T09:35:21;102012.50;;;12.07;55.17
11395;BME280;5753;54.402;10.220;2023-02-19T09:37:47;102011.56;;;12.68;54.04
11395;BME280;5753;54.402;10.220;2023-02-19T09:40:13;102009.53;;;11.38;56.45
11395;BME280;5753;54.402;10.220;2023-02-19T09:42:46;102013.13;;;11.43;55.59
11395;BME280;5753;54.402;10.220;2023-02-19T09:45:18;102013.66;;;12.48;54.19
11395;BME280;5753;54.402;10.220;2023-02-19T09:47:46;102019.94;;;12.26;53.95
11395;BME280;5753;54.402;10.220;2023-02-19T09:50:17;102020.84;;;12.28;53.74
11395;BME280;5753;54.402;10.220;2023-02-19T09:52:50;102033.06;;;11.75;54.17
11395;BME280;5753;54.402;10.220;2023-02-19T09:58:35;102030.84;;;11.86;53.84
11395;BME280;5753;54.402;10.220;2023-02-19T10:00:56;102046.75;;;13.26;50.63
11395;BME280;5753;54.402;10.220;2023-02-19T10:05:59;102066.97;;;11.84;52.47
11395;BME280;5753;54.402;10.220;2023-02-19T10:08:29;102071.19;;;11.82;52.58
11395;BME280;5753;54.402;10.220;2023-02-19T10:10:56;102083.09;;;12.97;50.40
11395;BME280;5753;54.402;10.220;2023-02-19T10:14:00;102087.88;;;11.66;51.65
11395;BME280;5753;54.402;10.220;2023-02-19T10:16:25;102095.31;;;12.11;50.15
11395;BME280;5753;54.402;10.220;2023-02-19T10:18:52;102104.63;;;12.65;49.88
11395;BME280;5753;54.402;10.220;2023-02-19T10:21:22;102105.53;;;13.30;49.21
11395;BME280;5753;54.402;10.220;2023-02-19T10:23:52;102115.81;;;11.78;50.46
11395;BME280;5753;54.402;10.220;2023-02-19T10:26:20;102122.72;;;12.65;50.03
11395;BME280;5753;54.402;10.220;2023-02-19T10:28:47;102124.81;;;12.18;48.63
11395;BME280;5753;54.402;10.220;2023-02-19T10:31:21;102121.31;;;13.40;47.81
11395;BME280;5753;54.402;10.220;2023-02-19T10:33:53;102127.63;;;12.85;48.00
11395;BME280;5753;54.402;10.220;2023-02-19T10:36:40;102119.91;;;13.53;45.73
11395;BME280;5753;54.402;10.220;2023-02-19T10:41:49;102112.91;;;13.49;46.17
11395;BME280;5753;54.402;10.220;2023-02-19T10:44:29;102131.78;;;13.79;44.63
11395;BME280;5753;54.402;10.220;2023-02-19T10:46:59;102127.53;;;13.83;44.62
11395;BME280;5753;54.402;10.220;2023-02-19T10:52:00;102132.28;;;15.29;43.03
11395;BME280;5753;54.402;10.220;2023-02-19T10:54:30;102137.56;;;14.07;43.44
11395;BME280;5753;54.402;10.220;2023-02-19T10:59:59;102133.28;;;13.04;43.99
11395;BME280;5753;54.402;10.220;2023-02-19T11:02:27;102125.81;;;14.62;42.83
11395;BME280;5753;54.402;10.220;2023-02-19T11:05:18;102134.16;;;15.90;41.49
11395;BME280;5753;54.402;10.220;2023-02-19T11:07:54;102134.88;;;14.82;40.26
11395;BME280;5753;54.402;10.220;2023-02-19T11:10:25;102145.69;;;13.48;41.25
11395;BME280;5753;54.402;10.220;2023-02-19T11:13:05;102130.22;;;14.66;40.72
11395;BME280;5753;54.402;10.220;2023-02-19T11:15:35;102132.34;;;14.43;39.56
11395;BME280;5753;54.402;10.220;2023-02-19T11:20:48;102152.22;;;13.33;39.35
11395;BME280;5753;54.402;10.220;2023-02-19T11:23:21;102149.06;;;14.18;39.16
11395;BME280;5753;54.402;10.220;2023-02-19T11:25:49;102147.66;;;15.17;40.85
11395;BME280;5753;54.402;10.220;2023-02-19T11:28:34;102152.28;;;14.45;39.50
11395;BME280;5753;54.402;10.220;2023-02-19T11:33:49;102152.25;;;15.84;36.81
11395;BME280;5753;54.402;10.220;2023-02-19T11:36:31;102154.13;;;13.74;39.03
11395;BME280;5753;54.402;10.220;2023-02-19T11:39:02;102154.66;;;15.22;38.80
11395;BME280;5753;54.402;10.220;2023-02-19T11:45:19;102152.81;;;16.90;36.84
11395;BME280;5753;54.402;10.220;2023-02-19T11:50:03;102152.78;;;14.29;37.44
11395;BME280;5753;54.402;10.220;2023-02-19T11:55:55;102150.31;;;16.30;34.00
11395;BME280;5753;54.402;10.220;2023-02-19T12:31:35;102191.22;;;17.07;36.01
11395;BME280;5753;54.402;10.220;2023-02-19T12:34:09;102178.03;;;16.94;35.75
11395;BME280;5753;54.402;10.220;2023-02-19T12:39:11;102175.16;;;16.70;38.00
11395;BME280;5753;54.402;10.220;2023-02-19T12:44:20;102173.31;;;16.63;36.14
11395;BME280;5753;54.402;10.220;2023-02-19T12:46:52;102167.84;;;15.33;36.41
11395;BME280;5753;54.402;10.220;2023-02-19T12:52:31;102150.06;;;17.66;34.16
11395;BME280;5753;54.402;10.220;2023-02-19T12:55:51;102146.47;;;19.07;33.74
11395;BME280;5753;54.402;10.220;2023-02-19T12:58:01;102139.91;;;18.00;32.31
11395;BME280;5753;54.402;10.220;2023-02-19T13:03:15;102126.41;;;18.94;31.94
11395;BME280;5753;54.402;10.220;2023-02-19T13:05:56;102125.97;;;21.04;30.01
11395;BME280;5753;54.402;10.220;2023-02-19T13:08:46;102130.75;;;21.63;29.52
11395;BME280;5753;54.402;10.220;2023-02-19T13:13:55;102132.44;;;20.40;30.41
11395;BME280;5753;54.402;10.220;2023-02-19T13:16:24;102142.19;;;19.55;30.80
11395;BME280;5753;54.402;10.220;2023-02-19T13:19:01;102124.13;;;21.15;29.52
11395;BME280;5753;54.402;10.220;2023-02-19T13:21:30;102128.78;;;20.69;30.20
11395;BME280;5753;54.402;10.220;2023-02-19T13:24:35;102135.16;;;19.47;29.97
11395;BME280;5753;54.402;10.220;2023-02-19T13:27:57;102129.75;;;18.59;31.62
11395;BME280;5753;54.402;10.220;2023-02-19T13:33:24;102121.03;;;18.51;33.13
11395;BME280;5753;54.402;10.220;2023-02-19T13:36:23;102133.88;;;18.08;32.14
11395;BME280;5753;54.402;10.220;2023-02-19T13:38:51;102129.88;;;17.44;33.04
11395;BME280;5753;54.402;10.220;2023-02-19T13:41:29;102136.59;;;17.16;32.79
11395;BME280;5753;54.402;10.220;2023-02-19T13:44:02;102146.34;;;18.67;31.85
11395;BME280;5753;54.402;10.220;2023-02-19T13:46:35;102137.56;;;18.51;32.03
11395;BME280;5753;54.402;10.220;2023-02-19T13:49:22;102133.44;;;19.65;30.57
11395;BME280;5753;54.402;10.220;2023-02-19T13:52:02;102131.34;;;18.30;30.69
11395;BME280;5753;54.402;10.220;2023-02-19T13:54:34;102139.09;;;18.07;31.13
11395;BME280;5753;54.402;10.220;2023-02-19T13:59:57;102138.69;;;19.53;30.03
11395;BME280;5753;54.402;10.220;2023-02-19T14:02:29;102133.38;;;19.01;30.70
11395;BME280;5753;54.402;10.220;2023-02-19T14:07:49;102149.84;;;16.58;32.74
11395;BME280;5753;54.402;10.220;2023-02-19T14:13:10;102142.00;;;18.72;30.21
11395;BME280;5753;54.402;10.220;2023-02-19T14:15:43;102140.72;;;16.95;32.74
11395;BME280;5753;54.402;10.220;2023-02-19T14:18:52;102135.13;;;20.05;29.94
11395;BME280;5753;54.402;10.220;2023-02-19T14:21:25;102117.56;;;20.44;28.98
11395;BME280;5753;54.402;10.220;2023-02-19T14:23:59;102121.66;;;16.99;33.55
11395;BME280;5753;54.402;10.220;2023-02-19T14:26:28;102122.81;;;20.35;29.55
11395;BME280;5753;54.402;10.220;2023-02-19T14:28:56;102111.63;;;19.32;30.44
11395;BME280;5753;54.402;10.220;2023-02-19T14:33:59;102092.38;;;18.68;31.37
11395;BME280;5753;54.402;10.220;2023-02-19T14:36:51;102090.94;;;17.63;32.47
11395;BME280;5753;54.402;10.220;2023-02-19T14:39:28;102091.53;;;18.78;32.04
11395;BME280;5753;54.402;10.220;2023-02-19T14:42:00;102090.41;;;20.59;29.55
11395;BME280;5753;54.402;10.220;2023-02-19T14:47:16;102095.91;;;19.89;30.39
11395;BME280;5753;54.402;10.220;2023-02-19T14:49:57;102095.00;;;18.69;29.67
11395;BME280;5753;54.402;10.220;2023-02-19T14:55:05;102094.13;;;18.81;30.50
11395;BME280;5753;54.402;10.220;2023-02-19T14:57:42;102109.00;;;19.05;30.73
11395;BME280;5753;54.402;10.220;2023-02-19T15:02:53;102099.59;;;17.58;33.73
11395;BME280;5753;54.402;10.220;2023-02-19T15:05:27;102111.63;;;17.42;34.38
11395;BME280;5753;54.402;10.220;2023-02-19T15:07:58;102117.16;;;17.82;32.99
11395;BME280;5753;54.402;10.220;2023-02-19T15:10:30;102116.66;;;18.50;32.51
11395;BME280;5753;54.402;10.220;2023-02-19T15:13:02;102109.41;;;17.96;33.09
11395;BME280;5753;54.402;10.220;2023-02-19T15:15:36;102111.03;;;16.80;34.95
11395;BME280;5753;54.402;10.220;2023-02-19T15:18:12;102100.72;;;17.93;33.81
11395;BME280;5753;54.402;10.220;2023-02-19T15:20:41;102109.25;;;16.74;35.69
11395;BME280;5753;54.402;10.220;2023-02-19T15:23:10;102118.78;;;17.66;34.29
11395;BME280;5753;54.402;10.220;2023-02-19T15:25:42;102131.47;;;15.33;38.04
11395;BME280;5753;54.402;10.220;2023-02-19T15:30:56;102129.19;;;12.79;44.04
11395;BME280;5753;54.402;10.220;2023-02-19T15:33:31;102131.84;;;12.82;44.65